sensor_id;sensor_type;location;lat;lon;timestamp;temperature;humidity
25200;DHT22;33094;48.782;9.162;2023-05-16T00:01:37;13.70;99.90
25200;DHT22;33094;48.782;9.162;2023-05-16T00:04:17;13.80;99.90
25200;DHT22;33094;48.782;9.162;2023-05-16T00:06:45;13.80;99.90
25200;DHT22;33094;48.782;9.162;2023-05-16T00:09:13;13.70;99.90
25200;DHT22;33094;48.782;9.162;2023-05-16T00:11:39;13.60;99.90
25200;DHT22;33094;48.782;9.162;2023-05-16T00:16:46;13.60;99.90
25200;DHT22;33094;48.782;9.162;2023-05-16T00:19:27;13.60;99.90
25200;DHT22;33094;48.782;9.162;2023-05-16T00:21:56;13.70;99.90
25200;DHT22;33094;48.782;9.162;2023-05-16T00:24:22;13.70;99.90
25200;DHT22;33094;48.782;9.162;2023-05-16T00:26:51;13.50;99.90
25200;DHT22;33094;48.782;9.162;2023-05-16T00:29:20;13.80;99.90
25200;DHT22;33094;48.782;9.162;2023-05-16T00:31:49;13.70;99.90
25200;DHT22;33094;48.782;9.162;2023-05-16T00:39:34;13.80;99.90
25200;DHT22;33094;48.782;9.162;2023-05-16T01:10:43;13.60;99.90
25200;DHT22;33094;48.782;9.162;2023-05-16T06:40:33;13.30;99.90
25200;DHT22;33094;48.782;9.162;2023-05-16T08:09:17;13.90;99.90
25200;DHT22;33094;48.782;9.162;2023-05-16T09:37:19;13.50;99.90
25200;DHT22;33094;48.782;9.162;2023-05-16T09:52:45;15.00;99.90
25200;DHT22;33094;48.782;9.162;2023-05-16T09:55:12;16.50;99.90
25200;DHT22;33094;48.782;9.162;2023-05-16T10:18:20;14.50;99.90
25200;DHT22;33094;48.782;9.162;2023-05-16T12:56:35;13.60;99.90
25200;DHT22;33094;48.782;9.162;2023-05-16T13:06:52;13.70;99.90
25200;DHT22;33094;48.782;9.162;2023-05-16T13:09:21;13.70;99.90
25200;DHT22;33094;48.782;9.162;2023-05-16T13:17:21;13.50;99.90
25200;DHT22;33094;48.782;9.162;2023-05-16T13:19:51;13.30;99.90
25200;DHT22;33094;48.782;9.162;2023-05-16T13:22:27;13.10;99.90
25200;DHT22;33094;48.782;9.162;2023-05-16T13:27:29;13.20;99.90
25200;DHT22;33094;48.782;9.162;2023-05-16T14:32:04;13.40;99.90
25200;DHT22;33094;48.782;9.162;2023-05-16T14:47:34;13.20;99.90
25200;DHT22;33094;48.782;9.162;2023-05-16T14:50:10;13.30;99.90
25200;DHT22;33094;48.782;9.162;2023-05-16T14:52:39;13.50;99.90
25200;DHT22;33094;48.782;9.162;2023-05-16T14:55:11;13.70;99.90
25200;DHT22;33094;48.782;9.162;2023-05-16T14:57:40;13.80;99.90
25200;DHT22;33094;48.782;9.162;2023-05-16T15:00:10;13.80;99.90
25200;DHT22;33094;48.782;9.162;2023-05-16T15:02:36;13.70;99.90
25200;DHT22;33094;48.782;9.162;2023-05-16T15:05:04;13.80;99.90
25200;DHT22;33094;48.782;9.162;2023-05-16T15:07:40;13.80;99.90
25200;DHT22;33094;48.782;9.162;2023-05-16T15:10:16;13.90;99.90
25200;DHT22;33094;48.782;9.162;2023-05-16T15:12:44;13.80;99.90
25200;DHT22;33094;48.782;9.162;2023-05-16T15:15:33;14.00;99.90
25200;DHT22;33094;48.782;9.162;2023-05-16T15:17:59;14.00;99.90
25200;DHT22;33094;48.782;9.162;2023-05-16T15:20:24;14.20;99.80
25200;DHT22;33094;48.782;9.162;2023-05-16T15:22:50;14.20;99.60
25200;DHT22;33094;48.782;9.162;2023-05-16T15:25:28;14.20;99.00
25200;DHT22;33094;48.782;9.162;2023-05-16T15:28:23;14.40;98.90
25200;DHT22;33094;48.782;9.162;2023-05-16T15:30:50;14.40;99.00
25200;DHT22;33094;48.782;9.162;2023-05-16T15:33:16;14.50;98.90
25200;DHT22;33094;48.782;9.162;2023-05-16T15:35:41;14.50;99.20
25200;DHT22;33094;48.782;9.162;2023-05-16T15:38:07;14.40;99.60
25200;DHT22;33094;48.782;9.162;2023-05-16T15:40:33;14.50;99.50
25200;DHT22;33094;48.782;9.162;2023-05-16T15:42:59;14.50;99.30
25200;DHT22;33094;48.782;9.162;2023-05-16T15:45:24;14.60;99.40
25200;DHT22;33094;48.782;9.162;2023-05-16T15:47:51;14.90;99.50
25200;DHT22;33094;48.782;9.162;2023-05-16T15:53:34;15.10;98.50
25200;DHT22;33094;48.782;9.162;2023-05-16T15:56:00;15.10;98.40
25200;DHT22;33094;48.782;9.162;2023-05-16T15:58:49;15.10;98.60
25200;DHT22;33094;48.782;9.162;2023-05-16T16:01:21;15.00;98.50
25200;DHT22;33094;48.782;9.162;2023-05-16T16:03:46;14.80;98.60
25200;DHT22;33094;48.782;9.162;2023-05-16T16:06:36;14.70;98.80
25200;DHT22;33094;48.782;9.162;2023-05-16T16:09:34;14.50;99.00
25200;DHT22;33094;48.782;9.162;2023-05-16T16:11:59;14.20;99.40
25200;DHT22;33094;48.782;9.162;2023-05-16T16:14:43;14.20;99.20
25200;DHT22;33094;48.782;9.162;2023-05-16T16:17:09;14.20;99.20
25200;DHT22;33094;48.782;9.162;2023-05-16T16:19:37;14.20;99.10
25200;DHT22;33094;48.782;9.162;2023-05-16T16:22:03;14.20;99.10
25200;DHT22;33094;48.782;9.162;2023-05-16T16:24:29;14.20;98.80
25200;DHT22;33094;48.782;9.162;2023-05-16T16:26:54;14.10;98.80
25200;DHT22;33094;48.782;9.162;2023-05-16T16:29:20;14.10;98.70
25200;DHT22;33094;48.782;9.162;2023-05-16T16:31:45;14.00;98.60
25200;DHT22;33094;48.782;9.162;2023-05-16T16:34:11;14.00;98.50
25200;DHT22;33094;48.782;9.162;2023-05-16T16:36:37;13.90;98.20
25200;DHT22;33094;48.782;9.162;2023-05-16T16:39:03;13.90;98.10
25200;DHT22;33094;48.782;9.162;2023-05-16T16:41:30;13.90;98.00
25200;DHT22;33094;48.782;9.162;2023-05-16T16:43:56;14.00;97.80
25200;DHT22;33094;48.782;9.162;2023-05-16T16:46:21;14.00;97.70
25200;DHT22;33094;48.782;9.162;2023-05-16T16:48:54;14.00;97.90
25200;DHT22;33094;48.782;9.162;2023-05-16T16:51:28;14.10;97.60
25200;DHT22;33094;48.782;9.162;2023-05-16T16:54:24;14.10;97.40
25200;DHT22;33094;48.782;9.162;2023-05-16T16:57:07;14.10;97.10
25200;DHT22;33094;48.782;9.162;2023-05-16T16:59:44;14.10;97.00
25200;DHT22;33094;48.782;9.162;2023-05-16T17:02:19;14.00;96.90
25200;DHT22;33094;48.782;9.162;2023-05-16T17:04:51;14.10;96.90
25200;DHT22;33094;48.782;9.162;2023-05-16T17:17:35;14.10;96.60
25200;DHT22;33094;48.782;9.162;2023-05-16T17:23:43;14.10;96.50
25200;DHT22;33094;48.782;9.162;2023-05-16T17:26:14;14.00;96.20
25200;DHT22;33094;48.782;9.162;2023-05-16T17:28:41;14.00;96.30
25200;DHT22;33094;48.782;9.162;2023-05-16T17:31:12;14.00;96.10
25200;DHT22;33094;48.782;9.162;2023-05-16T17:33:52;14.10;96.00
25200;DHT22;33094;48.782;9.162;2023-05-16T17:36:19;14.20;96.10
25200;DHT22;33094;48.782;9.162;2023-05-16T17:38:50;14.20;96.30
25200;DHT22;33094;48.782;9.162;2023-05-16T17:41:17;14.20;96.20
25200;DHT22;33094;48.782;9.162;2023-05-16T17:43:43;14.20;96.30
25200;DHT22;33094;48.782;9.162;2023-05-16T17:46:15;14.40;96.30
25200;DHT22;33094;48.782;9.162;2023-05-16T17:49:15;14.50;96.50
25200;DHT22;33094;48.782;9.162;2023-05-16T17:52:01;14.40;96.20
25200;DHT22;33094;48.782;9.162;2023-05-16T17:54:29;14.40;96.10
25200;DHT22;33094;48.782;9.162;2023-05-16T17:56:56;14.30;96.00
25200;DHT22;33094;48.782;9.162;2023-05-16T17:59:23;14.20;96.00
25200;DHT22;33094;48.782;9.162;2023-05-16T18:01:48;14.10;96.10
25200;DHT22;33094;48.782;9.162;2023-05-16T18:04:14;14.10;96.30
25200;DHT22;33094;48.782;9.162;2023-05-16T18:06:40;14.20;96.20
25200;DHT22;33094;48.782;9.162;2023-05-16T18:09:06;14.20;96.30
25200;DHT22;33094;48.782;9.162;2023-05-16T18:11:35;14.20;96.00
25200;DHT22;33094;48.782;9.162;2023-05-16T18:14:02;14.20;96.30
25200;DHT22;33094;48.782;9.162;2023-05-16T18:16:28;14.10;96.10
25200;DHT22;33094;48.782;9.162;2023-05-16T18:18:55;14.10;96.40
25200;DHT22;33094;48.782;9.162;2023-05-16T18:21:21;14.00;96.10
25200;DHT22;33094;48.782;9.162;2023-05-16T18:23:46;14.00;96.10
25200;DHT22;33094;48.782;9.162;2023-05-16T18:26:12;13.90;95.80
25200;DHT22;33094;48.782;9.162;2023-05-16T18:28:38;13.80;96.00
25200;DHT22;33094;48.782;9.162;2023-05-16T18:31:04;13.80;96.00
25200;DHT22;33094;48.782;9.162;2023-05-16T18:33:29;13.80;96.00
25200;DHT22;33094;48.782;9.162;2023-05-16T18:35:55;13.80;96.00
25200;DHT22;33094;48.782;9.162;2023-05-16T18:38:21;13.70;95.70
25200;DHT22;33094;48.782;9.162;2023-05-16T18:40:46;13.80;95.20
25200;DHT22;33094;48.782;9.162;2023-05-16T18:43:15;13.70;94.80
25200;DHT22;33094;48.782;9.162;2023-05-16T18:45:42;13.60;94.60
25200;DHT22;33094;48.782;9.162;2023-05-16T18:48:07;13.60;94.60
25200;DHT22;33094;48.782;9.162;2023-05-16T18:50:33;13.70;94.70
25200;DHT22;33094;48.782;9.162;2023-05-16T18:52:59;13.50;94.50
25200;DHT22;33094;48.782;9.162;2023-05-16T18:55:25;13.60;94.30
25200;DHT22;33094;48.782;9.162;2023-05-16T18:57:51;13.50;94.40
25200;DHT22;33094;48.782;9.162;2023-05-16T19:00:18;13.40;94.50
25200;DHT22;33094;48.782;9.162;2023-05-16T19:02:45;13.30;94.30
25200;DHT22;33094;48.782;9.162;2023-05-16T19:05:10;13.30;94.40
25200;DHT22;33094;48.782;9.162;2023-05-16T19:07:38;13.20;94.50
25200;DHT22;33094;48.782;9.162;2023-05-16T19:10:04;13.30;94.50
25200;DHT22;33094;48.782;9.162;2023-05-16T19:12:30;13.20;94.30
25200;DHT22;33094;48.782;9.162;2023-05-16T19:14:56;13.20;94.80
25200;DHT22;33094;48.782;9.162;2023-05-16T19:17:21;13.20;95.70
25200;DHT22;33094;48.782;9.162;2023-05-16T19:19:47;13.10;94.50
25200;DHT22;33094;48.782;9.162;2023-05-16T19:22:13;13.00;94.60
25200;DHT22;33094;48.782;9.162;2023-05-16T19:24:38;13.10;94.70
25200;DHT22;33094;48.782;9.162;2023-05-16T19:27:04;13.00;94.70
25200;DHT22;33094;48.782;9.162;2023-05-16T19:29:30;13.00;94.90
25200;DHT22;33094;48.782;9.162;2023-05-16T19:31:56;13.00;94.90
25200;DHT22;33094;48.782;9.162;2023-05-16T19:34:21;12.90;94.70
25200;DHT22;33094;48.782;9.162;2023-05-16T19:36:51;12.90;94.50
25200;DHT22;33094;48.782;9.162;2023-05-16T19:39:16;12.80;94.60
25200;DHT22;33094;48.782;9.162;2023-05-16T19:41:42;12.70;94.70
25200;DHT22;33094;48.782;9.162;2023-05-16T19:44:08;12.70;94.60
25200;DHT22;33094;48.782;9.162;2023-05-16T19:46:34;12.60;94.80
25200;DHT22;33094;48.782;9.162;2023-05-16T19:48:59;12.60;94.80
25200;DHT22;33094;48.782;9.162;2023-05-16T19:51:25;12.60;94.50
25200;DHT22;33094;48.782;9.162;2023-05-16T19:53:51;12.50;94.30
25200;DHT22;33094;48.782;9.162;2023-05-16T19:56:16;12.40;94.40
25200;DHT22;33094;48.782;9.162;2023-05-16T19:58:42;12.40;94.20
25200;DHT22;33094;48.782;9.162;2023-05-16T20:01:09;12.30;94.30
25200;DHT22;33094;48.782;9.162;2023-05-16T20:03:35;12.40;94.20
25200;DHT22;33094;48.782;9.162;2023-05-16T20:06:01;12.30;94.30
25200;DHT22;33094;48.782;9.162;2023-05-16T20:08:27;12.40;94.30
25200;DHT22;33094;48.782;9.162;2023-05-16T20:10:52;12.20;94.20
25200;DHT22;33094;48.782;9.162;2023-05-16T20:13:19;12.20;94.30
25200;DHT22;33094;48.782;9.162;2023-05-16T20:15:45;12.20;94.20
25200;DHT22;33094;48.782;9.162;2023-05-16T20:18:11;12.20;94.10
25200;DHT22;33094;48.782;9.162;2023-05-16T20:20:37;12.10;94.10
25200;DHT22;33094;48.782;9.162;2023-05-16T20:23:03;12.10;94.20
25200;DHT22;33094;48.782;9.162;2023-05-16T20:25:28;12.20;94.30
25200;DHT22;33094;48.782;9.162;2023-05-16T20:27:56;12.10;94.30
25200;DHT22;33094;48.782;9.162;2023-05-16T20:30:22;12.10;94.20
25200;DHT22;33094;48.782;9.162;2023-05-16T20:32:48;12.10;94.10
25200;DHT22;33094;48.782;9.162;2023-05-16T20:35:13;12.10;94.20
25200;DHT22;33094;48.782;9.162;2023-05-16T20:37:39;12.20;94.20
25200;DHT22;33094;48.782;9.162;2023-05-16T20:40:06;12.20;94.20
25200;DHT22;33094;48.782;9.162;2023-05-16T20:42:32;12.20;94.20
25200;DHT22;33094;48.782;9.162;2023-05-16T20:44:58;12.10;94.20
25200;DHT22;33094;48.782;9.162;2023-05-16T20:47:24;12.10;94.20
25200;DHT22;33094;48.782;9.162;2023-05-16T20:49:50;12.20;94.30
25200;DHT22;33094;48.782;9.162;2023-05-16T20:52:15;12.20;94.20
25200;DHT22;33094;48.782;9.162;2023-05-16T20:54:41;12.10;94.30
25200;DHT22;33094;48.782;9.162;2023-05-16T20:57:07;12.10;94.30
25200;DHT22;33094;48.782;9.162;2023-05-16T20:59:32;12.20;94.40
25200;DHT22;33094;48.782;9.162;2023-05-16T21:01:58;12.20;94.40
25200;DHT22;33094;48.782;9.162;2023-05-16T21:04:24;12.20;94.30
25200;DHT22;33094;48.782;9.162;2023-05-16T21:06:50;12.20;94.20
25200;DHT22;33094;48.782;9.162;2023-05-16T21:09:16;12.10;94.00
25200;DHT22;33094;48.782;9.162;2023-05-16T21:11:42;12.10;94.00
25200;DHT22;33094;48.782;9.162;2023-05-16T21:14:08;12.30;94.30
25200;DHT22;33094;48.782;9.162;2023-05-16T21:16:33;12.10;94.10
25200;DHT22;33094;48.782;9.162;2023-05-16T21:18:59;12.00;94.20
25200;DHT22;33094;48.782;9.162;2023-05-16T21:21:25;12.00;94.20
25200;DHT22;33094;48.782;9.162;2023-05-16T21:23:51;12.00;94.00
25200;DHT22;33094;48.782;9.162;2023-05-16T21:26:17;11.90;94.20
25200;DHT22;33094;48.782;9.162;2023-05-16T21:28:42;11.90;94.30
25200;DHT22;33094;48.782;9.162;2023-05-16T21:31:08;11.90;94.20
25200;DHT22;33094;48.782;9.162;2023-05-16T21:33:33;12.00;94.30
25200;DHT22;33094;48.782;9.162;2023-05-16T21:35:59;11.90;94.20
25200;DHT22;33094;48.782;9.162;2023-05-16T21:38:25;11.90;94.20
25200;DHT22;33094;48.782;9.162;2023-05-16T21:40:52;12.00;94.20
25200;DHT22;33094;48.782;9.162;2023-05-16T21:43:17;11.90;94.30
25200;DHT22;33094;48.782;9.162;2023-05-16T21:45:43;12.00;94.10
25200;DHT22;33094;48.782;9.162;2023-05-16T21:48:09;11.90;94.20
25200;DHT22;33094;48.782;9.162;2023-05-16T21:50:34;11.70;94.30
25200;DHT22;33094;48.782;9.162;2023-05-16T21:53:00;11.80;94.40
25200;DHT22;33094;48.782;9.162;2023-05-16T21:55:26;11.70;94.40
25200;DHT22;33094;48.782;9.162;2023-05-16T21:57:51;11.70;94.40
25200;DHT22;33094;48.782;9.162;2023-05-16T22:00:17;11.80;94.20
25200;DHT22;33094;48.782;9.162;2023-05-16T22:02:46;11.70;94.10
25200;DHT22;33094;48.782;9.162;2023-05-16T22:05:13;11.70;94.50
25200;DHT22;33094;48.782;9.162;2023-05-16T22:07:39;11.60;94.40
25200;DHT22;33094;48.782;9.162;2023-05-16T22:10:05;11.50;94.50
25200;DHT22;33094;48.782;9.162;2023-05-16T22:12:31;11.50;94.40
25200;DHT22;33094;48.782;9.162;2023-05-16T22:14:57;11.50;94.40
25200;DHT22;33094;48.782;9.162;2023-05-16T22:17:23;11.40;94.60
25200;DHT22;33094;48.782;9.162;2023-05-16T22:19:48;11.30;94.70
25200;DHT22;33094;48.782;9.162;2023-05-16T22:22:14;11.20;94.70
25200;DHT22;33094;48.782;9.162;2023-05-16T22:24:40;11.20;94.70
25200;DHT22;33094;48.782;9.162;2023-05-16T22:27:06;11.20;94.70
25200;DHT22;33094;48.782;9.162;2023-05-16T22:29:31;11.20;94.80
25200;DHT22;33094;48.782;9.162;2023-05-16T22:32:06;11.20;94.90
25200;DHT22;33094;48.782;9.162;2023-05-16T22:34:32;11.10;94.80
25200;DHT22;33094;48.782;9.162;2023-05-16T22:36:58;11.10;94.70
25200;DHT22;33094;48.782;9.162;2023-05-16T22:39:24;11.00;94.70
25200;DHT22;33094;48.782;9.162;2023-05-16T22:41:49;11.00;94.90
25200;DHT22;33094;48.782;9.162;2023-05-16T22:44:15;11.00;95.00
25200;DHT22;33094;48.782;9.162;2023-05-16T22:46:42;11.00;94.90
25200;DHT22;33094;48.782;9.162;2023-05-16T22:49:07;10.90;94.70
25200;DHT22;33094;48.782;9.162;2023-05-16T22:51:33;10.90;95.00
25200;DHT22;33094;48.782;9.162;2023-05-16T22:53:59;10.90;95.10
25200;DHT22;33094;48.782;9.162;2023-05-16T22:56:24;10.80;94.90
25200;DHT22;33094;48.782;9.162;2023-05-16T22:58:50;10.80;94.90
25200;DHT22;33094;48.782;9.162;2023-05-16T23:01:15;10.70;95.10
25200;DHT22;33094;48.782;9.162;2023-05-16T23:03:41;10.70;95.20
25200;DHT22;33094;48.782;9.162;2023-05-16T23:06:07;10.70;95.20
25200;DHT22;33094;48.782;9.162;2023-05-16T23:08:32;10.60;95.20
25200;DHT22;33094;48.782;9.162;2023-05-16T23:10:58;10.50;95.20
25200;DHT22;33094;48.782;9.162;2023-05-16T23:13:23;10.50;95.30
25200;DHT22;33094;48.782;9.162;2023-05-16T23:15:49;10.50;95.30
25200;DHT22;33094;48.782;9.162;2023-05-16T23:18:14;10.50;95.30
25200;DHT22;33094;48.782;9.162;2023-05-16T23:20:40;10.50;95.40
25200;DHT22;33094;48.782;9.162;2023-05-16T23:23:06;10.40;95.40
25200;DHT22;33094;48.782;9.162;2023-05-16T23:25:32;10.30;95.70
25200;DHT22;33094;48.782;9.162;2023-05-16T23:27:57;10.30;95.70
25200;DHT22;33094;48.782;9.162;2023-05-16T23:30:23;10.30;95.80
25200;DHT22;33094;48.782;9.162;2023-05-16T23:32:49;10.50;96.00
25200;DHT22;33094;48.782;9.162;2023-05-16T23:35:17;10.20;96.00
25200;DHT22;33094;48.782;9.162;2023-05-16T23:37:43;10.10;96.00
25200;DHT22;33094;48.782;9.162;2023-05-16T23:40:09;10.30;96.00
25200;DHT22;33094;48.782;9.162;2023-05-16T23:42:35;10.20;95.90
25200;DHT22;33094;48.782;9.162;2023-05-16T23:45:01;10.20;96.10
25200;DHT22;33094;48.782;9.162;2023-05-16T23:47:27;10.10;96.00
25200;DHT22;33094;48.782;9.162;2023-05-16T23:49:52;10.20;96.20
25200;DHT22;33094;48.782;9.162;2023-05-16T23:52:18;10.10;96.00
25200;DHT22;33094;48.782;9.162;2023-05-16T23:54:44;10.00;96.00
25200;DHT22;33094;48.782;9.162;2023-05-16T23:57:09;10.20;96.40
25200;DHT22;33094;48.782;9.162;2023-05-16T23:59:35;9.90;96.20
